CheckWX is a tool to help pilots better visualize weather data.  It is not intended as a substitute for an official pre-flight weather briefing.

19:10:05 UTC

KBDR METAR
Igor I Sikorsky Memorial Airport
Bridgeport, Connecticut, USA
Current

1 hour ago

KBDR 161752Z 23012KT 10SM BKN100 OVC120 03/M03 A3012 RMK AO2 SLP197 T00331028 10039 20000 58025
Observed
Feb-16 @ 17:52 UTC
Wind
  • 230° at 12 KTS
Visibility
10 SM
Flight Rules
VFR
Cloud Levels
  • Broken at 10,000' AGL
  • Overcast at 12,000' AGL
Temperature
C / 37°F
Dewpoint
-3°C / 27°F
Humidity
65%
Altimeter
30.12" Hg
Pressure
1020.02 hPa
Previous

2 hours ago

KBDR 161652Z 23011KT 10SM FEW085 BKN100 03/M03 A3014 RMK AO2 SLP206 T00331033
Observed
Feb-16 @ 16:52 UTC
Wind
  • 230° at 11 KTS
Visibility
10 SM
Flight Rules
VFR
Cloud Levels
  • Few at 8,500' AGL
  • Broken at 10,000' AGL
Temperature
C / 37°F
Dewpoint
-3°C / 27°F
Humidity
65%
Altimeter
30.14" Hg
Pressure
1020.62 hPa
Previous

3 hours ago

KBDR 161552Z 23011KT 10SM CLR 03/M03 A3017 RMK AO2 SLP215 T00281028
Observed
Feb-16 @ 15:52 UTC
Wind
  • 230° at 11 KTS
Visibility
10 SM
Flight Rules
VFR
Cloud Levels
  • Clear skies
Temperature
C / 37°F
Dewpoint
-3°C / 27°F
Humidity
65%
Altimeter
30.17" Hg
Pressure
1021.72 hPa